Parets del Valles, Spain
Current Conditions -  °F | °C
As of 6:00 PM on Wednesday 28 Jan 2015 (Local Time) from LELL Reporting Station
Few Clouds Few Clouds  
Wind Chill: 50°   Ceiling: Unl
Heat Index: 50°   Visibility: 6mi
Dew Point: 39°   Wind: 2mph
Humidity: 66%   Direction: NA
Pressure: 30.09"   Gusts: NA
Location:  41.58°N, 2.23°E
Report Text: LELL 281700Z VRB02KT 9999 FEW030 10/04 Q1019
Loading
Personal Weather Stations






























Interactive Weather Map New forecast layout! Learn more

10-Day Weather Forecast

Advertisements
Track Severe Weather on mobile